Time;durP1;ratioP1;P1;durP2;ratioP2;P2;SDS_P1;SDS_P2;PMS_P1;PMS_P2;Temp;Humidity;BMP_temperature;BMP_pressure;BME280_temperature;BME280_humidity;BME280_pressure;Samples;Min_cycle;Max_cycle;Signal;HPM_P1;HPM_P2
2023/03/06 00:01:26;;;;;;;11.93;5.28;;;;;;;;;;5101539;28;20055;-77
2023/03/06 00:03:53;;;;;;;7.65;5.00;;;;;;;;;;5078610;28;20058;-78
2023/03/06 00:06:20;;;;;;;13.73;6.57;;;;;;;;;;5102466;28;20020;-78
2023/03/06 00:08:46;;;;;;;10.30;5.63;;;;;;;;;;5102564;28;20505;-78
2023/03/06 00:11:14;;;;;;;8.68;5.28;;;;;;;;;;5101324;28;20065;-77
2023/03/06 00:13:40;;;;;;;11.82;4.57;;;;;;;;;;5105744;28;20028;-78
2023/03/06 00:16:07;;;;;;;9.13;5.22;;;;;;;;;;5099219;28;20127;-78
2023/03/06 00:18:33;;;;;;;14.85;6.15;;;;;;;;;;5080389;28;20609;-78
2023/03/06 00:21:00;;;;;;;11.57;5.80;;;;;;;;;;5107616;28;20061;-79
2023/03/06 00:23:26;;;;;;;10.27;5.22;;;;;;;;;;5101476;28;20019;-78
2023/03/06 00:25:53;;;;;;;8.60;5.13;;;;;;;;;;5081065;28;20564;-78
2023/03/06 00:28:19;;;;;;;6.68;4.63;;;;;;;;;;5093694;28;20032;-77
2023/03/06 00:30:46;;;;;;;10.40;5.38;;;;;;;;;;5100425;28;20022;-78
2023/03/06 00:33:12;;;;;;;11.93;5.15;;;;;;;;;;5087146;28;20026;-78
2023/03/06 00:35:41;;;;;;;16.60;5.95;;;;;;;;;;5103459;28;20047;-78
2023/03/06 00:38:09;;;;;;;8.13;4.55;;;;;;;;;;5108012;28;20102;-78
2023/03/06 00:40:35;;;;;;;8.23;5.18;;;;;;;;;;5099340;28;20024;-79
2023/03/06 00:43:01;;;;;;;8.65;5.15;;;;;;;;;;5099456;28;20065;-78
2023/03/06 00:45:28;;;;;;;10.60;5.30;;;;;;;;;;5102600;28;20032;-78
2023/03/06 00:47:54;;;;;;;13.93;5.18;;;;;;;;;;5103284;28;20046;-78
2023/03/06 00:50:20;;;;;;;7.65;4.97;;;;;;;;;;5094216;28;20114;-78
2023/03/06 00:52:46;;;;;;;13.15;5.13;;;;;;;;;;5097444;28;20170;-78
2023/03/06 00:55:12;;;;;;;8.35;5.25;;;;;;;;;;5103948;28;20103;-77
2023/03/06 00:57:39;;;;;;;10.82;4.47;;;;;;;;;;5094530;28;20103;-78
2023/03/06 01:00:06;;;;;;;15.10;5.63;;;;;;;;;;5099770;28;20027;-78
2023/03/06 01:02:32;;;;;;;9.10;5.13;;;;;;;;;;5093094;28;20396;-78
2023/03/06 01:04:58;;;;;;;8.23;4.78;;;;;;;;;;5103892;28;20484;-78
2023/03/06 01:07:26;;;;;;;9.27;5.40;;;;;;;;;;5098837;28;20036;-77
2023/03/06 01:09:52;;;;;;;8.65;5.88;;;;;;;;;;5097401;28;20087;-77
2023/03/06 01:12:18;;;;;;;12.73;5.28;;;;;;;;;;5102077;28;20126;-76
2023/03/06 01:14:44;;;;;;;10.75;5.10;;;;;;;;;;5074067;28;20111;-79
2023/03/06 01:17:11;;;;;;;8.18;4.85;;;;;;;;;;5097243;28;20118;-78
2023/03/06 01:19:37;;;;;;;9.88;5.45;;;;;;;;;;5099266;28;20533;-77
2023/03/06 01:22:03;;;;;;;7.55;4.80;;;;;;;;;;5099864;28;20052;-77
2023/03/06 01:24:29;;;;;;;10.77;5.22;;;;;;;;;;5090884;28;20036;-78
2023/03/06 01:26:55;;;;;;;12.60;5.28;;;;;;;;;;5094949;28;20473;-79
2023/03/06 01:29:22;;;;;;;8.07;5.03;;;;;;;;;;5095066;28;20115;-78
2023/03/06 01:31:48;;;;;;;12.32;5.18;;;;;;;;;;5098290;28;20023;-77
2023/03/06 01:34:14;;;;;;;8.10;5.32;;;;;;;;;;5091730;28;20023;-79
2023/03/06 01:36:40;;;;;;;10.40;5.40;;;;;;;;;;5089468;28;20036;-78
2023/03/06 01:39:06;;;;;;;8.55;5.03;;;;;;;;;;5094602;28;20118;-78
2023/03/06 01:41:32;;;;;;;11.98;5.70;;;;;;;;;;5097091;28;20165;-77
2023/03/06 01:43:59;;;;;;;11.32;5.38;;;;;;;;;;5078290;28;20031;-78
2023/03/06 01:46:25;;;;;;;11.82;5.43;;;;;;;;;;5090334;28;20069;-78
2023/03/06 01:48:59;;;;;;;8.60;5.22;;;;;;;;;;5096216;28;20104;-78
2023/03/06 01:51:28;;;;;;;14.07;5.88;;;;;;;;;;5093897;28;20513;-78
2023/03/06 01:53:54;;;;;;;8.13;5.07;;;;;;;;;;5082691;28;20157;-78
2023/03/06 01:56:21;;;;;;;8.88;5.20;;;;;;;;;;5074502;28;20114;-79
2023/03/06 01:58:48;;;;;;;9.93;4.72;;;;;;;;;;5096859;28;20103;-79
2023/03/06 02:01:15;;;;;;;9.50;5.03;;;;;;;;;;5094786;28;20056;-77
2023/03/06 02:03:42;;;;;;;8.43;5.25;;;;;;;;;;5096896;28;20016;-77
2023/03/06 02:06:08;;;;;;;8.70;5.28;;;;;;;;;;5096447;28;20019;-79
2023/03/06 02:08:35;;;;;;;12.35;5.00;;;;;;;;;;5100511;28;20019;-79
2023/03/06 02:11:06;;;;;;;8.68;5.28;;;;;;;;;;5080919;28;20036;-78
2023/03/06 02:13:32;;;;;;;8.80;4.93;;;;;;;;;;5102397;28;20035;-77
2023/03/06 02:15:58;;;;;;;14.52;4.60;;;;;;;;;;5097219;28;20036;-77
2023/03/06 02:18:25;;;;;;;9.95;4.55;;;;;;;;;;5102477;28;20637;-77
2023/03/06 02:20:54;;;;;;;10.70;5.05;;;;;;;;;;5090910;28;20094;-77
2023/03/06 02:23:20;;;;;;;14.93;4.85;;;;;;;;;;5100167;28;20031;-78
2023/03/06 02:25:47;;;;;;;8.70;4.50;;;;;;;;;;5094059;28;20353;-77
2023/03/06 02:28:18;;;;;;;7.88;4.55;;;;;;;;;;5095434;28;20107;-78
2023/03/06 02:30:45;;;;;;;10.68;5.18;;;;;;;;;;5095398;28;20098;-78
2023/03/06 02:33:12;;;;;;;11.02;4.93;;;;;;;;;;5099881;28;20643;-77
2023/03/06 02:35:39;;;;;;;7.85;4.65;;;;;;;;;;5083954;28;20519;-78
2023/03/06 02:38:09;;;;;;;9.35;4.63;;;;;;;;;;5091228;28;20680;-77
2023/03/06 02:40:35;;;;;;;9.70;4.40;;;;;;;;;;5094693;28;20027;-77
2023/03/06 02:43:01;;;;;;;9.73;5.10;;;;;;;;;;5098198;28;20662;-78
2023/03/06 02:45:28;;;;;;;6.82;4.00;;;;;;;;;;5100302;28;20034;-79
2023/03/06 02:47:54;;;;;;;10.50;4.82;;;;;;;;;;5088614;28;20595;-78
2023/03/06 02:50:20;;;;;;;9.68;5.03;;;;;;;;;;5092895;28;20027;-78
2023/03/06 02:52:46;;;;;;;7.90;4.25;;;;;;;;;;5091682;28;20107;-78
2023/03/06 02:55:12;;;;;;;6.03;4.28;;;;;;;;;;5097485;28;20089;-78
2023/03/06 02:57:38;;;;;;;9.65;4.50;;;;;;;;;;5084671;28;20435;-77
2023/03/06 03:00:05;;;;;;;12.00;4.93;;;;;;;;;;5095803;28;20051;-77
2023/03/06 03:02:31;;;;;;;13.20;5.65;;;;;;;;;;5082187;28;20127;-78
2023/03/06 03:04:57;;;;;;;10.40;4.70;;;;;;;;;;5090122;28;20563;-78
2023/03/06 03:07:24;;;;;;;8.95;4.60;;;;;;;;;;5102709;28;20107;-78
2023/03/06 03:09:50;;;;;;;6.05;4.53;;;;;;;;;;5097423;28;20111;-78
2023/03/06 03:12:16;;;;;;;9.05;4.70;;;;;;;;;;5095193;28;20392;-77
2023/03/06 03:14:42;;;;;;;11.80;4.85;;;;;;;;;;5102114;28;20111;-78
2023/03/06 03:17:08;;;;;;;11.20;5.03;;;;;;;;;;5084095;28;20059;-77
2023/03/06 03:19:34;;;;;;;12.75;4.60;;;;;;;;;;5093373;28;20020;-77
2023/03/06 03:22:01;;;;;;;9.82;4.57;;;;;;;;;;5098439;28;20039;-77
2023/03/06 03:24:27;;;;;;;7.78;4.20;;;;;;;;;;5082947;28;20081;-79
2023/03/06 03:26:53;;;;;;;14.88;4.82;;;;;;;;;;5096308;28;20036;-78
2023/03/06 03:29:20;;;;;;;11.32;4.78;;;;;;;;;;5100593;28;20023;-79
2023/03/06 03:31:46;;;;;;;16.58;4.93;;;;;;;;;;5096280;28;20574;-77
2023/03/06 03:34:12;;;;;;;8.20;4.40;;;;;;;;;;5095093;28;20032;-78
2023/03/06 03:36:38;;;;;;;12.63;4.53;;;;;;;;;;5095300;28;20550;-77
2023/03/06 03:39:05;;;;;;;9.32;4.78;;;;;;;;;;5100365;28;20107;-77
2023/03/06 03:41:32;;;;;;;8.38;4.18;;;;;;;;;;5097865;28;20027;-77
2023/03/06 03:43:58;;;;;;;8.40;4.20;;;;;;;;;;5096077;28;20058;-77
2023/03/06 03:46:25;;;;;;;6.60;4.03;;;;;;;;;;5099538;28;20110;-77
2023/03/06 03:48:51;;;;;;;9.88;4.30;;;;;;;;;;5082651;28;20051;-78
2023/03/06 03:51:18;;;;;;;8.48;4.10;;;;;;;;;;5098658;28;20026;-77
2023/03/06 03:53:44;;;;;;;6.20;3.75;;;;;;;;;;5098449;28;20057;-79
2023/03/06 03:56:11;;;;;;;7.38;4.07;;;;;;;;;;5075397;28;20063;-78
2023/03/06 03:58:37;;;;;;;11.18;4.13;;;;;;;;;;5097429;28;20062;-78
2023/03/06 04:01:03;;;;;;;7.88;3.90;;;;;;;;;;5087681;28;20050;-78
2023/03/06 04:03:29;;;;;;;9.23;4.00;;;;;;;;;;5102765;28;20020;-77
2023/03/06 04:05:56;;;;;;;9.52;4.03;;;;;;;;;;5081299;28;20047;-77
2023/03/06 04:08:23;;;;;;;6.13;3.90;;;;;;;;;;5094814;28;20220;-78
2023/03/06 04:10:50;;;;;;;8.10;4.13;;;;;;;;;;5095242;28;20043;-77
2023/03/06 04:13:19;;;;;;;5.65;3.88;;;;;;;;;;5096464;28;20071;-78
2023/03/06 04:15:50;;;;;;;9.20;4.15;;;;;;;;;;5099793;28;20032;-78
2023/03/06 04:18:16;;;;;;;6.70;3.80;;;;;;;;;;5098241;28;20097;-77
2023/03/06 04:20:43;;;;;;;8.32;4.38;;;;;;;;;;5099262;28;20046;-77
2023/03/06 04:23:09;;;;;;;7.95;4.00;;;;;;;;;;5093960;28;20111;-77
2023/03/06 04:25:36;;;;;;;8.07;3.88;;;;;;;;;;5092119;28;20095;-77
2023/03/06 04:28:02;;;;;;;6.82;4.18;;;;;;;;;;5092644;28;20126;-78
2023/03/06 04:30:29;;;;;;;7.72;4.30;;;;;;;;;;5092086;28;20382;-78
2023/03/06 04:32:55;;;;;;;8.82;4.45;;;;;;;;;;5102059;28;20524;-78
2023/03/06 04:35:21;;;;;;;7.90;4.20;;;;;;;;;;5073993;28;20166;-77
2023/03/06 04:37:47;;;;;;;10.30;4.07;;;;;;;;;;5099776;28;20046;-77
2023/03/06 04:40:18;;;;;;;6.05;4.13;;;;;;;;;;5092109;28;20096;-78
2023/03/06 04:42:44;;;;;;;7.57;4.05;;;;;;;;;;5091382;28;20115;-77
2023/03/06 04:45:11;;;;;;;8.30;3.63;;;;;;;;;;5093396;28;20050;-78
2023/03/06 04:47:37;;;;;;;6.13;3.58;;;;;;;;;;5094328;28;20020;-78
2023/03/06 04:50:03;;;;;;;6.68;3.35;;;;;;;;;;5093592;28;20102;-77
2023/03/06 04:52:29;;;;;;;10.43;3.63;;;;;;;;;;5095546;28;20111;-78
2023/03/06 04:54:56;;;;;;;8.70;4.00;;;;;;;;;;5099500;28;20077;-77
2023/03/06 04:57:22;;;;;;;10.93;5.35;;;;;;;;;;5091186;28;20085;-78
2023/03/06 04:59:49;;;;;;;6.65;3.75;;;;;;;;;;5093321;28;20355;-78
2023/03/06 05:02:16;;;;;;;7.05;4.13;;;;;;;;;;5090597;28;20020;-77
2023/03/06 05:04:42;;;;;;;5.50;3.60;;;;;;;;;;5091606;28;20073;-78
2023/03/06 05:07:09;;;;;;;9.50;3.80;;;;;;;;;;5093587;28;20043;-79
2023/03/06 05:09:35;;;;;;;11.63;4.00;;;;;;;;;;5070090;28;20107;-77
2023/03/06 05:12:01;;;;;;;7.80;3.47;;;;;;;;;;5092444;28;20051;-78
2023/03/06 05:14:31;;;;;;;6.50;3.85;;;;;;;;;;5097764;28;20165;-78
2023/03/06 05:16:57;;;;;;;6.25;3.45;;;;;;;;;;5082702;28;20031;-77
2023/03/06 05:19:23;;;;;;;7.00;3.60;;;;;;;;;;5095660;28;20471;-78
2023/03/06 05:21:49;;;;;;;11.50;4.15;;;;;;;;;;5088171;28;20032;-78
2023/03/06 05:24:16;;;;;;;4.85;3.40;;;;;;;;;;5095168;28;20123;-78
2023/03/06 05:26:42;;;;;;;5.93;3.53;;;;;;;;;;5087797;28;20111;-78
2023/03/06 05:29:08;;;;;;;4.93;3.22;;;;;;;;;;5090109;28;20076;-77
2023/03/06 05:31:34;;;;;;;5.82;3.28;;;;;;;;;;5072763;28;20371;-78
2023/03/06 05:34:00;;;;;;;7.93;3.03;;;;;;;;;;5076752;28;20119;-78
2023/03/06 05:36:26;;;;;;;5.95;3.33;;;;;;;;;;5100683;28;20506;-78
2023/03/06 05:38:53;;;;;;;6.38;3.20;;;;;;;;;;5087850;28;20103;-77
2023/03/06 05:41:19;;;;;;;9.30;3.33;;;;;;;;;;5093411;28;20023;-78
2023/03/06 05:43:45;;;;;;;6.15;3.47;;;;;;;;;;5093845;28;20035;-78
2023/03/06 05:46:11;;;;;;;4.85;3.25;;;;;;;;;;5093137;28;20094;-78
2023/03/06 05:48:37;;;;;;;3.88;3.00;;;;;;;;;;5089418;28;20430;-78
2023/03/06 05:51:04;;;;;;;7.05;3.13;;;;;;;;;;5092547;28;20028;-78
2023/03/06 05:53:31;;;;;;;6.80;2.70;;;;;;;;;;5093186;28;20020;-77
2023/03/06 05:56:01;;;;;;;8.05;3.33;;;;;;;;;;5088352;28;20039;-78
2023/03/06 05:58:28;;;;;;;4.80;3.08;;;;;;;;;;5094625;28;20027;-77
2023/03/06 06:00:55;;;;;;;6.53;2.72;;;;;;;;;;5091530;28;20088;-77
2023/03/06 06:03:21;;;;;;;3.65;2.90;;;;;;;;;;5091237;28;20019;-79
2023/03/06 06:05:47;;;;;;;5.32;2.90;;;;;;;;;;5092981;28;20019;-77
2023/03/06 06:08:14;;;;;;;4.38;2.97;;;;;;;;;;5093086;28;20034;-78
2023/03/06 06:10:40;;;;;;;3.85;2.40;;;;;;;;;;5092264;28;20023;-77
2023/03/06 06:13:06;;;;;;;3.85;2.63;;;;;;;;;;5093648;28;20043;-77
2023/03/06 06:15:32;;;;;;;4.68;2.70;;;;;;;;;;5100675;28;20036;-76
2023/03/06 06:17:59;;;;;;;5.50;3.13;;;;;;;;;;5098617;28;20032;-78
2023/03/06 06:20:27;;;;;;;4.63;2.72;;;;;;;;;;5090091;28;20044;-79
2023/03/06 06:22:53;;;;;;;3.67;2.67;;;;;;;;;;5090810;28;20038;-79
2023/03/06 06:25:20;;;;;;;4.78;2.72;;;;;;;;;;5096155;28;20038;-79
2023/03/06 06:27:46;;;;;;;5.78;3.10;;;;;;;;;;5094725;28;20059;-80
2023/03/06 06:30:12;;;;;;;4.75;2.67;;;;;;;;;;5096905;28;20111;-80
2023/03/06 06:32:38;;;;;;;5.07;3.08;;;;;;;;;;5098521;28;20114;-79
2023/03/06 06:35:05;;;;;;;6.38;3.30;;;;;;;;;;5098528;28;20026;-79
2023/03/06 06:37:31;;;;;;;5.82;3.17;;;;;;;;;;5091291;28;20060;-79
2023/03/06 06:39:57;;;;;;;8.13;4.53;;;;;;;;;;5092438;28;20027;-79
2023/03/06 06:42:24;;;;;;;11.18;7.00;;;;;;;;;;5093624;28;20012;-81
2023/03/06 06:44:50;;;;;;;11.05;7.68;;;;;;;;;;5096684;28;20020;-79
2023/03/06 06:47:16;;;;;;;13.80;7.90;;;;;;;;;;5082550;28;20098;-79
2023/03/06 06:49:42;;;;;;;11.63;8.50;;;;;;;;;;5091683;28;20023;-80
2023/03/06 06:52:10;;;;;;;14.70;8.13;;;;;;;;;;5088659;28;20172;-80
2023/03/06 06:54:36;;;;;;;14.65;10.15;;;;;;;;;;5086720;28;20015;-78
2023/03/06 06:57:02;;;;;;;14.30;8.88;;;;;;;;;;5092351;28;20131;-79
2023/03/06 06:59:28;;;;;;;14.05;8.93;;;;;;;;;;5094954;28;20419;-78
2023/03/06 07:01:54;;;;;;;13.40;7.60;;;;;;;;;;5101997;28;20027;-79
2023/03/06 07:04:21;;;;;;;10.77;7.20;;;;;;;;;;5095549;28;20150;-84
2023/03/06 07:06:50;;;;;;;12.77;7.13;;;;;;;;;;5079838;28;20032;-83
2023/03/06 07:09:17;;;;;;;11.40;6.30;;;;;;;;;;5099820;28;20362;-83
2023/03/06 07:11:43;;;;;;;10.73;6.35;;;;;;;;;;5100649;28;20054;-83
2023/03/06 07:14:09;;;;;;;7.70;5.78;;;;;;;;;;5102904;28;20020;-81
2023/03/06 07:16:35;;;;;;;11.82;6.70;;;;;;;;;;5074862;28;20369;-82
2023/03/06 07:19:02;;;;;;;13.10;6.57;;;;;;;;;;5094310;28;20024;-83
2023/03/06 07:21:28;;;;;;;9.43;5.85;;;;;;;;;;5080740;28;20027;-83
2023/03/06 07:23:56;;;;;;;9.45;6.13;;;;;;;;;;5103549;28;20046;-80
2023/03/06 07:26:22;;;;;;;11.48;6.35;;;;;;;;;;5100170;28;20020;-83
2023/03/06 07:28:51;;;;;;;10.68;5.53;;;;;;;;;;5096665;28;20051;-84
2023/03/06 07:31:18;;;;;;;10.32;5.65;;;;;;;;;;5103723;28;20395;-80
2023/03/06 07:33:44;;;;;;;9.20;5.28;;;;;;;;;;5104202;28;20515;-83
2023/03/06 07:36:10;;;;;;;8.70;6.13;;;;;;;;;;5098276;28;20119;-83
2023/03/06 07:38:37;;;;;;;12.63;5.68;;;;;;;;;;5099209;28;20020;-82
2023/03/06 07:41:12;;;;;;;10.95;6.10;;;;;;;;;;5100519;28;20076;-84
2023/03/06 07:43:38;;;;;;;12.13;6.63;;;;;;;;;;5086557;28;20050;-84
2023/03/06 07:46:04;;;;;;;9.32;5.78;;;;;;;;;;5104286;28;20015;-84
2023/03/06 07:48:30;;;;;;;9.05;6.43;;;;;;;;;;5071441;28;20418;-86
2023/03/06 07:50:58;;;;;;;10.15;6.43;;;;;;;;;;5089871;28;20030;-85
2023/03/06 07:53:24;;;;;;;17.33;7.15;;;;;;;;;;5079984;28;20019;-86
2023/03/06 07:55:51;;;;;;;12.10;7.18;;;;;;;;;;5105691;28;20042;-83
2023/03/06 07:58:17;;;;;;;12.05;7.03;;;;;;;;;;5085082;28;20114;-80
2023/03/06 08:00:43;;;;;;;9.40;6.07;;;;;;;;;;5100199;28;20030;-81
2023/03/06 08:03:13;;;;;;;8.77;5.75;;;;;;;;;;5095633;28;20031;-82
2023/03/06 08:05:39;;;;;;;9.88;6.00;;;;;;;;;;5079145;28;20016;-82
2023/03/06 08:08:06;;;;;;;10.70;5.60;;;;;;;;;;5103854;28;20512;-83
2023/03/06 08:10:32;;;;;;;11.13;5.75;;;;;;;;;;5102747;28;20081;-83
2023/03/06 08:12:58;;;;;;;8.10;5.93;;;;;;;;;;5101116;28;20054;-84
2023/03/06 08:15:25;;;;;;;9.25;5.60;;;;;;;;;;5074734;28;20026;-82
2023/03/06 08:17:51;;;;;;;8.05;4.63;;;;;;;;;;5104451;28;20047;-84
2023/03/06 08:20:18;;;;;;;7.70;4.43;;;;;;;;;;5086518;28;20103;-84
2023/03/06 08:22:44;;;;;;;8.07;4.93;;;;;;;;;;5095848;28;20873;-83
2023/03/06 08:25:13;;;;;;;9.07;5.30;;;;;;;;;;5104093;28;20559;-82
2023/03/06 08:27:40;;;;;;;5.50;4.07;;;;;;;;;;5077580;28;20045;-83
2023/03/06 08:30:07;;;;;;;6.57;4.63;;;;;;;;;;5103955;28;20016;-80
2023/03/06 08:32:36;;;;;;;7.18;4.13;;;;;;;;;;5080823;28;20028;-79
2023/03/06 08:35:06;;;;;;;7.18;4.47;;;;;;;;;;5104187;28;20094;-82
2023/03/06 08:37:32;;;;;;;7.13;4.00;;;;;;;;;;5092863;28;20503;-84
2023/03/06 08:39:58;;;;;;;8.07;4.18;;;;;;;;;;5086986;28;20036;-83
2023/03/06 08:42:25;;;;;;;6.13;4.18;;;;;;;;;;5087437;28;20020;-84
2023/03/06 08:44:51;;;;;;;7.50;3.92;;;;;;;;;;5104418;28;20148;-81
2023/03/06 08:47:17;;;;;;;6.22;3.70;;;;;;;;;;5085275;28;20913;-86
2023/03/06 08:49:43;;;;;;;6.10;3.90;;;;;;;;;;5084094;28;20368;-85
2023/03/06 08:52:10;;;;;;;7.50;3.97;;;;;;;;;;5085906;28;20028;-86
2023/03/06 08:54:38;;;;;;;5.97;3.72;;;;;;;;;;5105619;28;20154;-84
2023/03/06 08:57:04;;;;;;;6.72;4.22;;;;;;;;;;5100295;28;20125;-79
2023/03/06 08:59:30;;;;;;;6.85;4.53;;;;;;;;;;5093277;28;20028;-79
2023/03/06 09:01:56;;;;;;;20.23;11.43;;;;;;;;;;5092744;28;20111;-79
2023/03/06 09:04:23;;;;;;;23.95;11.27;;;;;;;;;;5094395;28;20020;-79
2023/03/06 09:06:49;;;;;;;17.25;10.48;;;;;;;;;;5094357;28;20016;-82
2023/03/06 09:09:15;;;;;;;16.20;10.63;;;;;;;;;;5087986;28;20016;-81
2023/03/06 09:11:41;;;;;;;8.77;5.93;;;;;;;;;;5093281;28;20043;-81
2023/03/06 09:14:08;;;;;;;8.05;4.70;;;;;;;;;;5093576;28;20023;-81
2023/03/06 09:16:34;;;;;;;13.63;7.78;;;;;;;;;;5098622;28;20028;-81
2023/03/06 09:19:00;;;;;;;14.02;9.18;;;;;;;;;;5090094;28;20011;-81
2023/03/06 09:21:27;;;;;;;7.82;3.78;;;;;;;;;;5091258;28;20038;-79
2023/03/06 09:23:54;;;;;;;8.10;6.20;;;;;;;;;;5087678;28;20019;-81
2023/03/06 09:26:20;;;;;;;5.90;3.22;;;;;;;;;;5101780;28;20047;-79
2023/03/06 09:28:46;;;;;;;6.68;4.50;;;;;;;;;;5098404;28;20012;-81
2023/03/06 09:31:14;;;;;;;13.13;8.35;;;;;;;;;;5092908;28;20068;-80
2023/03/06 09:33:40;;;;;;;9.73;6.63;;;;;;;;;;5090758;28;20520;-80
2023/03/06 09:36:07;;;;;;;6.63;4.72;;;;;;;;;;5090617;28;20032;-78
2023/03/06 09:38:33;;;;;;;7.18;4.30;;;;;;;;;;5100211;28;21071;-80
2023/03/06 09:41:00;;;;;;;6.60;3.90;;;;;;;;;;5084899;28;20042;-82
2023/03/06 09:43:34;;;;;;;4.80;3.58;;;;;;;;;;5075149;28;20884;-81
2023/03/06 09:46:00;;;;;;;7.28;3.90;;;;;;;;;;5082884;28;20016;-80
2023/03/06 09:48:49;;;;;;;5.90;4.03;;;;;;;;;;5098690;28;20054;-80
2023/03/06 09:51:16;;;;;;;4.72;3.65;;;;;;;;;;5063855;28;20106;-80
2023/03/06 09:53:55;;;;;;;8.00;4.30;;;;;;;;;;5089933;28;20103;-82
2023/03/06 09:56:22;;;;;;;6.35;4.18;;;;;;;;;;5091652;28;20044;-80
2023/03/06 09:59:02;;;;;;;6.80;3.78;;;;;;;;;;5090280;28;20054;-81
2023/03/06 10:01:31;;;;;;;7.63;4.82;;;;;;;;;;5090263;28;20094;-80
2023/03/06 10:03:58;;;;;;;6.63;3.70;;;;;;;;;;5096791;28;20023;-80
2023/03/06 10:06:28;;;;;;;5.28;3.20;;;;;;;;;;5098670;28;20023;-81
2023/03/06 10:09:06;;;;;;;5.90;3.05;;;;;;;;;;5091252;28;20024;-81
2023/03/06 10:11:45;;;;;;;4.72;2.97;;;;;;;;;;5095833;28;20050;-81
2023/03/06 10:14:20;;;;;;;4.10;3.05;;;;;;;;;;5094825;28;20024;-81
2023/03/06 10:16:46;;;;;;;6.40;3.35;;;;;;;;;;5097148;28;20135;-81
2023/03/06 10:19:17;;;;;;;5.93;3.17;;;;;;;;;;5098228;28;20492;-81
2023/03/06 10:22:03;;;;;;;8.25;3.75;;;;;;;;;;5098294;28;20028;-79
2023/03/06 10:24:34;;;;;;;4.45;2.92;;;;;;;;;;5101012;28;20406;-81
2023/03/06 10:27:04;;;;;;;4.70;3.17;;;;;;;;;;5101099;28;20123;-80
2023/03/06 10:29:43;;;;;;;5.13;3.58;;;;;;;;;;5096217;28;20024;-80
2023/03/06 10:32:11;;;;;;;4.70;2.83;;;;;;;;;;5090054;28;20507;-82
2023/03/06 10:34:38;;;;;;;5.13;2.97;;;;;;;;;;5089343;28;20099;-82
2023/03/06 10:40:02;;;;;;;7.80;3.72;;;;;;;;;;5083495;28;20031;-82
2023/03/06 10:42:29;;;;;;;6.07;3.60;;;;;;;;;;5089128;28;20476;-81
2023/03/06 10:45:09;;;;;;;6.68;2.92;;;;;;;;;;5093989;28;20084;-82
2023/03/06 10:47:36;;;;;;;5.43;3.00;;;;;;;;;;5093930;28;20028;-81
2023/03/06 10:50:05;;;;;;;5.75;3.35;;;;;;;;;;5093944;28;20018;-81
2023/03/06 10:52:33;;;;;;;7.38;3.97;;;;;;;;;;5096845;28;20097;-80
2023/03/06 10:55:18;;;;;;;4.05;3.00;;;;;;;;;;5101117;28;20059;-81
2023/03/06 10:57:44;;;;;;;4.93;2.50;;;;;;;;;;5086763;28;20573;-80
2023/03/06 11:00:30;;;;;;;4.25;2.17;;;;;;;;;;5100676;28;20020;-81
2023/03/06 11:03:04;;;;;;;3.00;2.00;;;;;;;;;;5068366;28;20028;-82
2023/03/06 11:05:31;;;;;;;3.72;2.38;;;;;;;;;;5088207;28;20064;-81
2023/03/06 11:07:58;;;;;;;4.55;2.83;;;;;;;;;;5064130;28;20383;-81
2023/03/06 11:10:28;;;;;;;3.25;2.45;;;;;;;;;;5098246;28;20016;-81
2023/03/06 11:13:01;;;;;;;4.78;2.00;;;;;;;;;;5097226;28;20097;-81
2023/03/06 11:15:28;;;;;;;4.40;1.80;;;;;;;;;;5096836;28;20041;-81
2023/03/06 11:17:54;;;;;;;2.80;1.85;;;;;;;;;;5096618;28;20039;-79
2023/03/06 11:20:22;;;;;;;2.97;1.90;;;;;;;;;;5092321;28;20388;-81
2023/03/06 11:23:11;;;;;;;5.22;2.03;;;;;;;;;;5091139;28;20077;-80
2023/03/06 11:25:41;;;;;;;2.92;1.55;;;;;;;;;;5063880;28;20036;-80
2023/03/06 11:28:27;;;;;;;5.70;1.90;;;;;;;;;;5101081;28;20540;-81
2023/03/06 11:31:00;;;;;;;3.10;1.83;;;;;;;;;;5089485;28;20174;-80
2023/03/06 11:33:33;;;;;;;2.90;1.60;;;;;;;;;;5089663;28;20341;-81
2023/03/06 11:36:20;;;;;;;2.38;1.45;;;;;;;;;;5087292;28;20555;-80
2023/03/06 11:38:56;;;;;;;4.05;1.60;;;;;;;;;;5057620;28;20027;-81
2023/03/06 11:41:22;;;;;;;3.47;1.80;;;;;;;;;;5088511;28;20019;-80
2023/03/06 11:43:48;;;;;;;5.63;1.90;;;;;;;;;;5098461;28;20012;-81
2023/03/06 11:46:16;;;;;;;2.65;1.70;;;;;;;;;;5096727;28;20020;-81
2023/03/06 11:48:46;;;;;;;5.72;1.85;;;;;;;;;;5103019;28;20016;-81
2023/03/06 11:51:23;;;;;;;3.65;1.83;;;;;;;;;;5099824;28;20334;-81
2023/03/06 11:53:49;;;;;;;3.80;1.55;;;;;;;;;;5092554;28;20430;-81
2023/03/06 11:56:18;;;;;;;4.38;1.75;;;;;;;;;;5076413;28;20028;-81
2023/03/06 11:58:44;;;;;;;3.38;1.70;;;;;;;;;;5094090;28;20099;-81
2023/03/06 12:01:23;;;;;;;8.63;2.22;;;;;;;;;;5099521;28;20016;-81
2023/03/06 12:03:49;;;;;;;5.32;2.05;;;;;;;;;;5075612;28;20176;-81
2023/03/06 12:06:18;;;;;;;8.02;2.05;;;;;;;;;;5103687;28;20051;-81
2023/03/06 12:08:48;;;;;;;8.93;2.55;;;;;;;;;;5094732;28;20471;-82
2023/03/06 12:11:20;;;;;;;4.75;2.17;;;;;;;;;;5077936;28;20291;-82
2023/03/06 12:14:05;;;;;;;5.28;2.05;;;;;;;;;;5093452;28;20027;-80
2023/03/06 12:16:48;;;;;;;6.18;1.95;;;;;;;;;;5097626;28;20367;-81
2023/03/06 12:19:18;;;;;;;8.13;2.20;;;;;;;;;;5083252;28;20019;-81
2023/03/06 12:21:51;;;;;;;9.00;2.10;;;;;;;;;;5096618;28;20127;-80
2023/03/06 12:24:17;;;;;;;5.38;2.20;;;;;;;;;;5093222;28;20047;-81
2023/03/06 12:27:02;;;;;;;4.80;2.08;;;;;;;;;;5103050;28;20011;-82
2023/03/06 12:29:32;;;;;;;7.03;2.25;;;;;;;;;;5084331;28;20559;-80
2023/03/06 12:32:01;;;;;;;5.85;2.15;;;;;;;;;;5084889;28;20055;-81
2023/03/06 12:34:27;;;;;;;8.98;2.75;;;;;;;;;;5097173;28;20015;-80
2023/03/06 12:37:20;;;;;;;7.50;2.63;;;;;;;;;;5102929;28;20112;-79
2023/03/06 12:40:05;;;;;;;8.27;2.92;;;;;;;;;;5066658;28;20181;-81
2023/03/06 12:42:42;;;;;;;8.10;2.70;;;;;;;;;;5091537;28;20024;-81
2023/03/06 12:45:21;;;;;;;6.72;2.33;;;;;;;;;;5094852;28;20035;-81
2023/03/06 12:47:47;;;;;;;8.82;2.50;;;;;;;;;;5092554;28;20193;-81
2023/03/06 12:50:23;;;;;;;9.65;2.60;;;;;;;;;;5098621;28;20055;-80
2023/03/06 12:52:49;;;;;;;7.90;2.42;;;;;;;;;;5099592;28;20092;-81
2023/03/06 12:55:19;;;;;;;6.72;2.20;;;;;;;;;;5098631;28;20581;-79
2023/03/06 12:57:47;;;;;;;8.65;2.00;;;;;;;;;;5087698;28;20028;-80
2023/03/06 13:00:33;;;;;;;5.22;2.22;;;;;;;;;;5080673;28;20024;-80
2023/03/06 13:03:02;;;;;;;8.80;2.47;;;;;;;;;;5091124;28;20055;-81
2023/03/06 13:05:55;;;;;;;11.75;2.92;;;;;;;;;;5095454;28;20024;-80
2023/03/06 13:08:45;;;;;;;5.38;2.42;;;;;;;;;;5096773;28;20507;-81
2023/03/06 13:11:22;;;;;;;5.60;2.55;;;;;;;;;;5077673;28;20027;-80
2023/03/06 13:13:49;;;;;;;5.25;2.67;;;;;;;;;;5102206;28;20051;-80
2023/03/06 13:16:15;;;;;;;4.20;1.85;;;;;;;;;;5094597;28;20379;-81
2023/03/06 13:18:41;;;;;;;5.25;2.17;;;;;;;;;;5084222;28;20248;-81
2023/03/06 13:21:34;;;;;;;9.23;2.60;;;;;;;;;;5085847;28;20281;-81
2023/03/06 13:24:05;;;;;;;7.63;2.85;;;;;;;;;;5051157;28;20046;-82
2023/03/06 13:26:32;;;;;;;7.25;3.03;;;;;;;;;;5096100;28;20097;-80
2023/03/06 13:28:58;;;;;;;4.75;2.35;;;;;;;;;;5092048;28;20020;-81
2023/03/06 13:31:24;;;;;;;9.32;2.78;;;;;;;;;;5095451;28;20069;-80
2023/03/06 13:33:52;;;;;;;9.80;2.72;;;;;;;;;;5088807;28;20099;-79
2023/03/06 13:36:21;;;;;;;7.75;2.78;;;;;;;;;;5094173;28;20028;-81
2023/03/06 13:38:50;;;;;;;6.68;2.67;;;;;;;;;;5101923;28;20016;-81
2023/03/06 13:41:23;;;;;;;9.27;3.50;;;;;;;;;;5099462;28;20023;-80
2023/03/06 13:43:54;;;;;;;4.25;2.63;;;;;;;;;;5093353;28;20476;-83
2023/03/06 13:46:27;;;;;;;5.90;2.78;;;;;;;;;;5090948;28;20645;-82
2023/03/06 13:49:03;;;;;;;8.50;2.72;;;;;;;;;;5094923;28;20028;-80
2023/03/06 13:51:32;;;;;;;7.88;3.28;;;;;;;;;;5075451;28;20408;-81
2023/03/06 13:53:58;;;;;;;6.18;3.05;;;;;;;;;;5082618;28;20107;-81
2023/03/06 13:56:27;;;;;;;7.18;2.88;;;;;;;;;;5095716;28;20040;-80
2023/03/06 13:58:53;;;;;;;6.22;2.35;;;;;;;;;;5074970;28;20677;-80
2023/03/06 14:01:23;;;;;;;8.48;3.00;;;;;;;;;;5098606;28;20628;-81
2023/03/06 14:03:56;;;;;;;7.85;3.10;;;;;;;;;;5101264;28;20421;-80
2023/03/06 14:06:34;;;;;;;6.85;2.63;;;;;;;;;;5087471;28;20475;-81
2023/03/06 14:09:12;;;;;;;4.32;2.88;;;;;;;;;;5098676;28;20475;-81
2023/03/06 14:11:39;;;;;;;9.00;4.00;;;;;;;;;;5088645;28;20034;-81
2023/03/06 14:14:09;;;;;;;6.07;2.20;;;;;;;;;;5092642;28;20034;-81
2023/03/06 14:16:39;;;;;;;7.05;2.75;;;;;;;;;;5097575;28;20035;-81
2023/03/06 14:19:07;;;;;;;3.72;2.20;;;;;;;;;;5086126;28;20019;-79
2023/03/06 14:21:47;;;;;;;7.28;2.97;;;;;;;;;;5091973;28;20044;-81
2023/03/06 14:24:17;;;;;;;5.75;2.55;;;;;;;;;;5089637;28;20079;-81
2023/03/06 14:26:47;;;;;;;5.20;2.30;;;;;;;;;;5089753;28;20040;-80
2023/03/06 14:29:34;;;;;;;5.25;2.83;;;;;;;;;;5087533;28;20103;-86
2023/03/06 14:32:01;;;;;;;8.20;2.33;;;;;;;;;;5090166;28;20024;-77
2023/03/06 14:34:29;;;;;;;6.75;2.30;;;;;;;;;;5084006;28;20015;-76
2023/03/06 14:36:58;;;;;;;5.20;2.20;;;;;;;;;;5102670;28;20031;-78
2023/03/06 14:39:29;;;;;;;3.47;2.20;;;;;;;;;;5083686;28;20028;-78
2023/03/06 14:42:05;;;;;;;5.28;2.25;;;;;;;;;;5102133;28;20027;-79
2023/03/06 14:44:31;;;;;;;5.05;2.08;;;;;;;;;;5083291;28;20031;-78
2023/03/06 14:47:11;;;;;;;4.97;2.08;;;;;;;;;;5101363;28;20483;-78
2023/03/06 14:49:37;;;;;;;3.47;1.92;;;;;;;;;;5083620;28;20055;-78
2023/03/06 14:52:04;;;;;;;6.10;2.00;;;;;;;;;;5101942;28;20058;-77